Time;durP1;ratioP1;P1;durP2;ratioP2;P2;SDS_P1;SDS_P2;PMS_P1;PMS_P2;Temp;Humidity;BMP_temperature;BMP_pressure;BME280_temperature;BME280_humidity;BME280_pressure;Samples;Min_cycle;Max_cycle;Signal;HPM_P1;HPM_P2
2022/12/04 00:00:34;;;;;;;;;;;;;;;;;;5072785;28;905;-78
2022/12/04 00:03:00;;;;;;;;;;;;;;;;;;5069359;28;1095;-78
2022/12/04 00:05:27;;;;;;;;;;;;;;;;;;5058040;28;1396;-78
2022/12/04 00:07:54;;;;;;;;;;;;;;;;;;5055370;28;1895;-77
2022/12/04 00:10:20;;;;;;;;;;;;;;;;;;5055303;28;1131;-78
2022/12/04 00:12:46;;;;;;;;;;;;;;;;;;5034953;28;1195;-77
2022/12/04 00:15:12;;;;;;;;;;;;;;;;;;5057750;28;1403;-77
2022/12/04 00:17:38;;;;;;;;;;;;;;;;;;5040210;28;1464;-78
2022/12/04 00:20:05;;;;;;;;;;;;;;;;;;5040996;28;1349;-78
2022/12/04 00:22:33;;;;;;;;;;;;;;;;;;5053849;28;775;-77
2022/12/04 00:25:01;;;;;;;;;;;;;;;;;;5053541;28;1321;-78
2022/12/04 00:27:27;;;;;;;;;;;;;;;;;;5053793;28;1902;-78
2022/12/04 00:29:53;;;;;;;;;;;;;;;;;;5054291;28;1115;-78
2022/12/04 00:32:19;;;;;;;;;;;;;;;;;;5052765;28;1092;-78
2022/12/04 00:34:46;;;;;;;;;;;;;;;;;;5053778;28;1322;-78
2022/12/04 00:37:12;;;;;;;;;;;;;;;;;;5053826;28;1071;-78
2022/12/04 00:39:38;;;;;;;;;;;;;;;;;;5053816;28;1044;-78
2022/12/04 00:42:06;;;;;;;;;;;;;;;;;;5053069;28;1051;-78
2022/12/04 00:44:32;;;;;;;;;;;;;;;;;;5053253;28;1308;-78
2022/12/04 00:46:58;;;;;;;;;;;;;;;;;;5053555;28;1910;-78
2022/12/04 00:49:24;;;;;;;;;;;;;;;;;;5053716;28;1020;-78
2022/12/04 00:51:50;;;;;;;;;;;;;;;;;;5052931;28;960;-78
2022/12/04 00:54:16;;;;;;;;;;;;;;;;;;5053142;28;925;-78
2022/12/04 00:56:43;;;;;;;;;;;;;;;;;;5053532;28;1529;-78
2022/12/04 00:59:10;;;;;;;;;;;;;;;;;;5053586;28;1072;-78
2022/12/04 01:01:37;;;;;;;;;;;;;;;;;;5052350;28;897;-79
2022/12/04 01:04:03;;;;;;;;;;;;;;;;;;5036246;28;988;-78
2022/12/04 01:06:30;;;;;;;;;;;;;;;;;;5054285;28;1388;-78
2022/12/04 01:08:57;;;;;;;;;;;;;;;;;;5054875;28;1914;-78
2022/12/04 01:11:24;;;;;;;;;;;;;;;;;;5060438;28;1150;-77
2022/12/04 01:13:50;;;;;;;;;;;;;;;;;;5059686;28;1142;-78
2022/12/04 01:16:18;;;;;;;;;;;;;;;;;;5039484;28;1555;-78
2022/12/04 01:18:45;;;;;;;;;;;;;;;;;;5057520;28;906;-78
2022/12/04 01:21:11;;;;;;;;;;;;;;;;;;5056814;28;1080;-77
2022/12/04 01:23:37;;;;;;;;;;;;;;;;;;5056310;28;901;-77
2022/12/04 01:26:04;;;;;;;;;;;;;;;;;;5057141;28;1407;-77
2022/12/04 01:28:30;;;;;;;;;;;;;;;;;;5060839;28;1977;-78
2022/12/04 01:30:57;;;;;;;;;;;;;;;;;;5063042;28;874;-77
2022/12/04 01:33:25;;;;;;;;;;;;;;;;;;5061549;28;1056;-78
2022/12/04 01:35:52;;;;;;;;;;;;;;;;;;5060498;28;1317;-77
2022/12/04 01:38:18;;;;;;;;;;;;;;;;;;5058305;28;985;-78
2022/12/04 01:40:44;;;;;;;;;;;;;;;;;;5057759;28;922;-78
2022/12/04 01:43:11;;;;;;;;;;;;;;;;;;5056585;28;1111;-76
2022/12/04 01:45:38;;;;;;;;;;;;;;;;;;5055482;28;1429;-78
2022/12/04 01:48:07;;;;;;;;;;;;;;;;;;5056736;28;1896;-78
2022/12/04 01:50:35;;;;;;;;;;;;;;;;;;5055451;28;1042;-77
2022/12/04 01:53:01;;;;;;;;;;;;;;;;;;5054476;28;1064;-77
2022/12/04 01:55:27;;;;;;;;;;;;;;;;;;5055154;28;1309;-77
2022/12/04 01:57:53;;;;;;;;;;;;;;;;;;5055278;28;822;-77
2022/12/04 02:00:20;;;;;;;;;;;;;;;;;;5055340;28;1071;-77
2022/12/04 02:02:46;;;;;;;;;;;;;;;;;;5036384;28;1135;-78
2022/12/04 02:05:13;;;;;;;;;;;;;;;;;;5055153;28;1415;-77
2022/12/04 02:07:41;;;;;;;;;;;;;;;;;;5055242;28;1887;-77
2022/12/04 02:10:08;;;;;;;;;;;;;;;;;;5055841;28;855;-77
2022/12/04 02:12:36;;;;;;;;;;;;;;;;;;5037872;28;1104;-77
2022/12/04 02:15:03;;;;;;;;;;;;;;;;;;5055619;28;1427;-77
2022/12/04 02:17:32;;;;;;;;;;;;;;;;;;5062831;28;890;-78
2022/12/04 02:20:11;;;;;;;;;;;;;;;;;;5075618;28;1012;-76
2022/12/04 02:22:52;;;;;;;;;;;;;;;;;;5059320;28;1157;-77
2022/12/04 02:25:22;;;;;;;;;;;;;;;;;;5019700;28;1772;-78
2022/12/04 02:28:01;;;;;;;;;;;;;;;;;;5050193;28;1925;-78
2022/12/04 02:30:27;;;;;;;;;;;;;;;;;;5054396;28;679;-78
2022/12/04 02:32:57;;;;;;;;;;;;;;;;;;5053425;28;778;-77
2022/12/04 02:35:25;;;;;;;;;;;;;;;;;;5054240;28;1368;-77
2022/12/04 02:37:52;;;;;;;;;;;;;;;;;;5054304;28;1126;-77
2022/12/04 02:40:19;;;;;;;;;;;;;;;;;;5054686;28;1080;-76
2022/12/04 02:42:47;;;;;;;;;;;;;;;;;;5035793;28;1036;-76
2022/12/04 02:45:16;;;;;;;;;;;;;;;;;;5054074;28;1409;-77
2022/12/04 02:47:42;;;;;;;;;;;;;;;;;;5053965;28;1979;-77
2022/12/04 02:50:09;;;;;;;;;;;;;;;;;;5054364;28;1079;-77
2022/12/04 02:52:36;;;;;;;;;;;;;;;;;;5053542;28;1039;-77
2022/12/04 02:55:04;;;;;;;;;;;;;;;;;;5053969;28;1293;-77
2022/12/04 02:57:31;;;;;;;;;;;;;;;;;;5054201;28;953;-77
2022/12/04 02:59:57;;;;;;;;;;;;;;;;;;5036630;28;1376;-77
2022/12/04 03:02:27;;;;;;;;;;;;;;;;;;5053277;28;1052;-77
2022/12/04 03:04:53;;;;;;;;;;;;;;;;;;5052471;28;1352;-78
2022/12/04 03:07:21;;;;;;;;;;;;;;;;;;5055403;28;1118;-77
2022/12/04 03:09:48;;;;;;;;;;;;;;;;;;5059111;28;1894;-78
2022/12/04 03:12:15;;;;;;;;;;;;;;;;;;5074286;28;945;-77
2022/12/04 03:14:42;;;;;;;;;;;;;;;;;;5073740;28;1373;-76
2022/12/04 03:17:09;;;;;;;;;;;;;;;;;;5057353;28;1151;-77
2022/12/04 03:19:37;;;;;;;;;;;;;;;;;;5053903;28;945;-78
2022/12/04 03:22:04;;;;;;;;;;;;;;;;;;5053089;28;1107;-77
2022/12/04 03:24:31;;;;;;;;;;;;;;;;;;5053215;28;1427;-75
2022/12/04 03:26:59;;;;;;;;;;;;;;;;;;5024282;28;1986;-77
2022/12/04 03:29:26;;;;;;;;;;;;;;;;;;5031781;28;2049;-77
2022/12/04 03:31:54;;;;;;;;;;;;;;;;;;5032700;28;1103;-77
2022/12/04 03:34:21;;;;;;;;;;;;;;;;;;5032185;28;1060;-77
2022/12/04 03:36:52;;;;;;;;;;;;;;;;;;5050976;28;1371;-77
2022/12/04 03:39:19;;;;;;;;;;;;;;;;;;5058067;22;1995;-78
2022/12/04 03:41:48;;;;;;;;;;;;;;;;;;5014606;28;1296;-77
2022/12/04 03:44:15;;;;;;;;;;;;;;;;;;5023943;28;2052;-78
2022/12/04 03:46:43;;;;;;;;;;;;;;;;;;5024771;28;2028;-78
2022/12/04 03:49:11;;;;;;;;;;;;;;;;;;5032194;28;1910;-78
2022/12/04 03:51:38;;;;;;;;;;;;;;;;;;5032776;28;1538;-78
2022/12/04 03:54:08;;;;;;;;;;;;;;;;;;5033984;28;1689;-77
2022/12/04 03:56:35;;;;;;;;;;;;;;;;;;5040591;28;1068;-79
2022/12/04 03:59:03;;;;;;;;;;;;;;;;;;5041850;28;1341;-78
2022/12/04 04:01:34;;;;;;;;;;;;;;;;;;5036752;28;863;-78
2022/12/04 04:04:00;;;;;;;;;;;;;;;;;;5033990;28;759;-78
2022/12/04 04:06:28;;;;;;;;;;;;;;;;;;5033838;28;1138;-78
2022/12/04 04:08:55;;;;;;;;;;;;;;;;;;5034100;28;1981;-78
2022/12/04 04:11:23;;;;;;;;;;;;;;;;;;5034040;28;1064;-78
2022/12/04 04:24:50;;;;;;;;;;;;;;;;;;5033944;28;1476;-78
2022/12/04 04:27:18;;;;;;;;;;;;;;;;;;5036732;28;2043;-78
2022/12/04 04:29:44;;;;;;;;;;;;;;;;;;5009840;28;2088;-77
2022/12/04 04:32:12;;;;;;;;;;;;;;;;;;5026069;28;1122;-77
2022/12/04 04:34:39;;;;;;;;;;;;;;;;;;4984389;28;1312;-78
2022/12/04 04:37:06;;;;;;;;;;;;;;;;;;5025417;28;1499;-78
2022/12/04 04:39:34;;;;;;;;;;;;;;;;;;5028664;28;1407;-79
2022/12/04 04:42:02;;;;;;;;;;;;;;;;;;5028942;28;1419;-79
2022/12/04 04:44:32;;;;;;;;;;;;;;;;;;5012847;28;1202;-79
2022/12/04 04:46:59;;;;;;;;;;;;;;;;;;5026645;28;1536;-80
2022/12/04 04:49:26;;;;;;;;;;;;;;;;;;5028987;28;1983;-79
2022/12/04 04:51:52;;;;;;;;;;;;;;;;;;5028815;28;1311;-79
2022/12/04 04:54:18;;;;;;;;;;;;;;;;;;5030435;28;944;-80
2022/12/04 04:56:45;;;;;;;;;;;;;;;;;;5012414;28;1218;-78
2022/12/04 04:59:12;;;;;;;;;;;;;;;;;;5027549;28;1500;-79
2022/12/04 05:01:40;;;;;;;;;;;;;;;;;;5020929;28;1158;-79
2022/12/04 05:04:06;;;;;;;;;;;;;;;;;;5010454;28;862;-79
2022/12/04 05:06:33;;;;;;;;;;;;;;;;;;5008967;28;1077;-79
2022/12/04 05:08:59;;;;;;;;;;;;;;;;;;4991911;28;1918;-79
2022/12/04 05:11:25;;;;;;;;;;;;;;;;;;5009334;28;929;-78
2022/12/04 05:13:51;;;;;;;;;;;;;;;;;;5027431;28;1721;-77
2022/12/04 05:16:18;;;;;;;;;;;;;;;;;;5012148;28;1360;-80
2022/12/04 05:19:52;;;;;;;;;;;;;;;;;;5012747;28;1666;-79
2022/12/04 05:21:31;;;;;;;;;;;;;;;;;;5028536;28;1006;-80
2022/12/04 05:23:58;;;;;;;;;;;;;;;;;;5030395;28;1088;-79
2022/12/04 05:26:24;;;;;;;;;;;;;;;;;;5029366;28;1473;-78
2022/12/04 05:28:50;;;;;;;;;;;;;;;;;;5028641;28;1926;-77
2022/12/04 05:31:17;;;;;;;;;;;;;;;;;;4999145;28;1405;-80
2022/12/04 05:33:46;;;;;;;;;;;;;;;;;;4970035;28;1335;-78
2022/12/04 05:36:13;;;;;;;;;;;;;;;;;;5007624;28;925;-79
2022/12/04 05:38:39;;;;;;;;;;;;;;;;;;4963654;28;1282;-78
2022/12/04 05:41:06;;;;;;;;;;;;;;;;;;4991797;28;1175;-79
2022/12/04 05:43:32;;;;;;;;;;;;;;;;;;5030550;28;1064;-79
2022/12/04 05:46:00;;;;;;;;;;;;;;;;;;5030077;28;1434;-79
2022/12/04 05:48:26;;;;;;;;;;;;;;;;;;5031422;28;1435;-79
2022/12/04 05:50:53;;;;;;;;;;;;;;;;;;5030534;28;1977;-78
2022/12/04 05:53:20;;;;;;;;;;;;;;;;;;5011759;28;1407;-78
2022/12/04 05:55:53;;;;;;;;;;;;;;;;;;5029316;28;1342;-78
2022/12/04 05:58:19;;;;;;;;;;;;;;;;;;5031626;28;1389;-79
2022/12/04 06:00:45;;;;;;;;;;;;;;;;;;5031496;28;1254;-77
2022/12/04 06:03:11;;;;;;;;;;;;;;;;;;5031705;28;1236;-80
2022/12/04 06:05:38;;;;;;;;;;;;;;;;;;5033064;28;1410;-79
2022/12/04 06:08:05;;;;;;;;;;;;;;;;;;5016121;28;1502;-79
2022/12/04 06:10:31;;;;;;;;;;;;;;;;;;5032404;28;1918;-78
2022/12/04 06:12:58;;;;;;;;;;;;;;;;;;5032084;28;1278;-79
2022/12/04 06:15:24;;;;;;;;;;;;;;;;;;5031447;28;1878;-79
2022/12/04 06:17:50;;;;;;;;;;;;;;;;;;5032198;28;1406;-77
2022/12/04 06:20:16;;;;;;;;;;;;;;;;;;5033129;28;1448;-80
2022/12/04 06:22:43;;;;;;;;;;;;;;;;;;5029438;28;1866;-78
2022/12/04 06:25:11;;;;;;;;;;;;;;;;;;5009691;28;2084;-79
2022/12/04 06:27:37;;;;;;;;;;;;;;;;;;5014220;28;1403;-78
2022/12/04 06:30:04;;;;;;;;;;;;;;;;;;5034369;28;1918;-78
2022/12/04 06:32:30;;;;;;;;;;;;;;;;;;5017911;28;1351;-78
2022/12/04 06:34:56;;;;;;;;;;;;;;;;;;5035788;28;1274;-78
2022/12/04 06:37:23;;;;;;;;;;;;;;;;;;5034787;28;1429;-79
2022/12/04 06:39:50;;;;;;;;;;;;;;;;;;5016003;28;1736;-78
2022/12/04 06:42:17;;;;;;;;;;;;;;;;;;5033454;28;1417;-78
2022/12/04 06:44:43;;;;;;;;;;;;;;;;;;5035799;28;1252;-78
2022/12/04 06:47:10;;;;;;;;;;;;;;;;;;5034233;28;1272;-78
2022/12/04 06:49:36;;;;;;;;;;;;;;;;;;5017106;28;1915;-78
2022/12/04 06:52:02;;;;;;;;;;;;;;;;;;5034921;28;1248;-78
2022/12/04 06:54:28;;;;;;;;;;;;;;;;;;5035455;28;1331;-78
2022/12/04 06:56:55;;;;;;;;;;;;;;;;;;5018797;28;1188;-78
2022/12/04 06:59:22;;;;;;;;;;;;;;;;;;5035466;28;1499;-78
2022/12/04 07:01:48;;;;;;;;;;;;;;;;;;5034426;28;929;-78
2022/12/04 07:04:15;;;;;;;;;;;;;;;;;;5035212;28;1500;-78
2022/12/04 07:06:41;;;;;;;;;;;;;;;;;;5034252;28;1393;-78
2022/12/04 07:09:10;;;;;;;;;;;;;;;;;;5032368;28;1979;-78
2022/12/04 07:11:36;;;;;;;;;;;;;;;;;;5033286;28;1675;-79
2022/12/04 07:14:03;;;;;;;;;;;;;;;;;;4956848;28;1229;-78
2022/12/04 07:16:38;;;;;;;;;;;;;;;;;;4942836;28;957;-78
2022/12/04 07:19:05;;;;;;;;;;;;;;;;;;4956374;28;1399;-76
2022/12/04 07:21:33;;;;;;;;;;;;;;;;;;4959460;28;1223;-76
2022/12/04 07:24:00;;;;;;;;;;;;;;;;;;4948272;28;847;-76
2022/12/04 07:26:27;;;;;;;;;;;;;;;;;;4965318;28;1590;-77
2022/12/04 07:28:53;;;;;;;;;;;;;;;;;;4970645;28;1373;-77
2022/12/04 07:31:20;;;;;;;;;;;;;;;;;;4970315;28;1922;-77
2022/12/04 07:33:49;;;;;;;;;;;;;;;;;;4952524;28;882;-77
2022/12/04 07:36:16;;;;;;;;;;;;;;;;;;4932840;28;708;-77
2022/12/04 07:38:43;;;;;;;;;;;;;;;;;;4912739;28;1310;-77
2022/12/04 07:41:10;;;;;;;;;;;;;;;;;;4954128;28;1059;-77
2022/12/04 07:43:37;;;;;;;;;;;;;;;;;;4952183;28;1157;-77
2022/12/04 07:46:04;;;;;;;;;;;;;;;;;;4972910;28;913;-77
2022/12/04 07:48:31;;;;;;;;;;;;;;;;;;4966318;28;1371;-76
2022/12/04 07:51:03;;;;;;;;;;;;;;;;;;4967855;28;1942;-76
2022/12/04 07:53:29;;;;;;;;;;;;;;;;;;4969257;28;1365;-76
2022/12/04 07:55:56;;;;;;;;;;;;;;;;;;4969731;28;910;-77
2022/12/04 07:58:23;;;;;;;;;;;;;;;;;;4952327;28;1383;-80
2022/12/04 08:00:54;;;;;;;;;;;;;;;;;;4914603;28;1244;-79
2022/12/04 08:03:21;;;;;;;;;;;;;;;;;;4914395;28;1319;-81
2022/12/04 08:05:48;;;;;;;;;;;;;;;;;;4905058;28;1624;-81
2022/12/04 08:08:17;;;;;;;;;;;;;;;;;;4917048;28;1381;-82
2022/12/04 08:10:44;;;;;;;;;;;;;;;;;;4917333;28;1938;-82
2022/12/04 08:13:10;;;;;;;;;;;;;;;;;;4957575;28;1124;-78
2022/12/04 08:15:37;;;;;;;;;;;;;;;;;;4965950;28;962;-78
2022/12/04 08:18:04;;;;;;;;;;;;;;;;;;4946807;28;1385;-77
2022/12/04 08:20:30;;;;;;;;;;;;;;;;;;4947271;28;874;-78
2022/12/04 08:22:56;;;;;;;;;;;;;;;;;;4950911;28;1072;-75
2022/12/04 08:25:24;;;;;;;;;;;;;;;;;;4964096;28;1068;-77
2022/12/04 08:27:51;;;;;;;;;;;;;;;;;;4965367;28;945;-77
2022/12/04 08:30:18;;;;;;;;;;;;;;;;;;4924627;28;2011;-80
2022/12/04 08:32:44;;;;;;;;;;;;;;;;;;4904087;28;1544;-82
2022/12/04 08:35:11;;;;;;;;;;;;;;;;;;4903327;28;1546;-80
2022/12/04 08:37:38;;;;;;;;;;;;;;;;;;4904330;28;1142;-79
2022/12/04 08:40:06;;;;;;;;;;;;;;;;;;4938981;28;1568;-81
2022/12/04 08:42:34;;;;;;;;;;;;;;;;;;4922023;28;1608;-81
2022/12/04 08:45:01;;;;;;;;;;;;;;;;;;4918214;28;1100;-81
2022/12/04 08:47:28;;;;;;;;;;;;;;;;;;4902440;28;991;-76
2022/12/04 08:49:54;;;;;;;;;;;;;;;;;;5029271;28;1914;-77
2022/12/04 08:52:20;;;;;;;;;;;;;;;;;;5013685;28;1124;-78
2022/12/04 08:54:46;;;;;;;;;;;;;;;;;;5028651;28;1551;-78
2022/12/04 08:57:13;;;;;;;;;;;;;;;;;;5031159;28;1162;-78
2022/12/04 08:59:41;;;;;;;;;;;;;;;;;;5030927;28;1996;-78
2022/12/04 09:02:08;;;;;;;;;;;;;;;;;;5029827;28;1771;-77
2022/12/04 09:04:34;;;;;;;;;;;;;;;;;;4990241;28;1593;-77
2022/12/04 09:07:01;;;;;;;;;;;;;;;;;;4962259;28;877;-79
2022/12/04 09:09:27;;;;;;;;;;;;;;;;;;4963233;28;1294;-76
2022/12/04 09:11:54;;;;;;;;;;;;;;;;;;4967692;28;2015;-77
2022/12/04 09:14:24;;;;;;;;;;;;;;;;;;4964783;28;1465;-77
2022/12/04 09:16:52;;;;;;;;;;;;;;;;;;4968217;28;884;-76
2022/12/04 09:19:19;;;;;;;;;;;;;;;;;;4962226;28;1377;-76
2022/12/04 09:21:45;;;;;;;;;;;;;;;;;;4963442;28;1680;-76
2022/12/04 09:24:11;;;;;;;;;;;;;;;;;;4953126;28;987;-76
2022/12/04 09:26:38;;;;;;;;;;;;;;;;;;4967613;28;1080;-76
2022/12/04 09:29:04;;;;;;;;;;;;;;;;;;4967023;28;1504;-76
2022/12/04 09:31:31;;;;;;;;;;;;;;;;;;4944656;28;2015;-75
2022/12/04 09:33:59;;;;;;;;;;;;;;;;;;4970329;28;890;-76
2022/12/04 09:36:26;;;;;;;;;;;;;;;;;;4967995;28;1460;-75
2022/12/04 09:38:53;;;;;;;;;;;;;;;;;;4993283;22;3600;-76
2022/12/04 09:41:24;;;;;;;;;;;;;;;;;;4946278;28;1824;-75
2022/12/04 09:43:51;;;;;;;;;;;;;;;;;;4970433;28;882;-75
2022/12/04 09:46:19;;;;;;;;;;;;;;;;;;4968501;28;902;-74
2022/12/04 09:48:47;;;;;;;;;;;;;;;;;;4977643;28;1356;-73
2022/12/04 09:51:18;;;;;;;;;;;;;;;;;;4965198;28;1938;-74
2022/12/04 09:53:46;;;;;;;;;;;;;;;;;;4971184;28;948;-74
2022/12/04 09:56:13;;;;;;;;;;;;;;;;;;4949123;28;995;-73
2022/12/04 09:58:40;;;;;;;;;;;;;;;;;;4961319;28;1401;-73
2022/12/04 10:01:10;;;;;;;;;;;;;;;;;;4945648;28;1035;-74
2022/12/04 10:03:36;;;;;;;;;;;;;;;;;;4970727;28;945;-73
2022/12/04 10:06:04;;;;;;;;;;;;;;;;;;4948873;28;1136;-73
2022/12/04 10:08:34;;;;;;;;;;;;;;;;;;4951269;28;1449;-72
2022/12/04 10:11:04;;;;;;;;;;;;;;;;;;4949014;28;1937;-73
2022/12/04 10:13:38;;;;;;;;;;;;;;;;;;4947566;28;1103;-75
2022/12/04 10:16:07;;;;;;;;;;;;;;;;;;4961214;28;905;-74
2022/12/04 10:18:36;;;;;;;;;;;;;;;;;;4957459;28;1376;-72
2022/12/04 10:21:13;;;;;;;;;;;;;;;;;;4965392;28;1628;-72
2022/12/04 10:23:45;;;;;;;;;;;;;;;;;;4969520;28;779;-75
2022/12/04 10:26:16;;;;;;;;;;;;;;;;;;4961565;28;1881;-77
2022/12/04 10:28:44;;;;;;;;;;;;;;;;;;4941893;28;1561;-75
2022/12/04 10:31:13;;;;;;;;;;;;;;;;;;4947958;28;2005;-73
2022/12/04 10:33:41;;;;;;;;;;;;;;;;;;4960775;28;1031;-72
2022/12/04 10:36:09;;;;;;;;;;;;;;;;;;4988101;28;877;-73
2022/12/04 10:38:41;;;;;;;;;;;;;;;;;;4963903;28;1834;-76
2022/12/04 10:41:10;;;;;;;;;;;;;;;;;;4985428;28;925;-73
2022/12/04 10:43:38;;;;;;;;;;;;;;;;;;4951037;28;1651;-70
2022/12/04 10:46:05;;;;;;;;;;;;;;;;;;4955956;28;1686;-77
2022/12/04 10:48:32;;;;;;;;;;;;;;;;;;4984271;28;1297;-74
2022/12/04 10:51:00;;;;;;;;;;;;;;;;;;4965199;28;2009;-74
2022/12/04 10:53:30;;;;;;;;;;;;;;;;;;4966634;28;2541;-74
2022/12/04 10:55:57;;;;;;;;;;;;;;;;;;4962620;28;1526;-74
2022/12/04 10:58:26;;;;;;;;;;;;;;;;;;4945204;28;1448;-74
2022/12/04 11:00:59;;;;;;;;;;;;;;;;;;4958018;28;1035;-73
2022/12/04 11:03:27;;;;;;;;;;;;;;;;;;4951152;28;934;-73
2022/12/04 11:05:54;;;;;;;;;;;;;;;;;;4943308;28;1893;-74
2022/12/04 11:08:23;;;;;;;;;;;;;;;;;;4939812;28;1609;-78
2022/12/04 11:10:56;;;;;;;;;;;;;;;;;;4925740;28;2021;-78
2022/12/04 11:13:23;;;;;;;;;;;;;;;;;;4900035;28;1074;-77
2022/12/04 11:15:52;;;;;;;;;;;;;;;;;;4902715;28;1179;-76
2022/12/04 11:18:19;;;;;;;;;;;;;;;;;;4904709;28;982;-78
2022/12/04 11:20:50;;;;;;;;;;;;;;;;;;4941594;28;1298;-75
2022/12/04 11:23:17;;;;;;;;;;;;;;;;;;4904718;28;1624;-78
2022/12/04 11:25:45;;;;;;;;;;;;;;;;;;4913149;28;1460;-78
2022/12/04 11:28:12;;;;;;;;;;;;;;;;;;4901707;28;1669;-78
2022/12/04 11:30:39;;;;;;;;;;;;;;;;;;4910617;28;1949;-77
2022/12/04 11:33:08;;;;;;;;;;;;;;;;;;4943072;28;1204;-73
2022/12/04 11:35:35;;;;;;;;;;;;;;;;;;4949959;28;1663;-77
2022/12/04 11:38:03;;;;;;;;;;;;;;;;;;4928923;28;1325;-73
2022/12/04 11:40:30;;;;;;;;;;;;;;;;;;4941639;28;1294;-74
2022/12/04 11:42:58;;;;;;;;;;;;;;;;;;4936990;28;1631;-72
2022/12/04 11:45:25;;;;;;;;;;;;;;;;;;4940641;28;893;-76
2022/12/04 11:47:58;;;;;;;;;;;;;;;;;;4940134;28;1905;-74
2022/12/04 11:50:29;;;;;;;;;;;;;;;;;;4943310;28;2017;-77
2022/12/04 11:53:06;;;;;;;;;;;;;;;;;;4929657;28;1847;-73
2022/12/04 11:55:34;;;;;;;;;;;;;;;;;;4916316;28;986;-76
2022/12/04 11:58:06;;;;;;;;;;;;;;;;;;4929893;28;1439;-72
2022/12/04 12:00:33;;;;;;;;;;;;;;;;;;4933657;28;1354;-76
2022/12/04 12:03:04;;;;;;;;;;;;;;;;;;4931928;28;880;-72
2022/12/04 12:05:46;;;;;;;;;;;;;;;;;;4936369;28;1360;-72
2022/12/04 12:08:14;;;;;;;;;;;;;;;;;;4932022;28;1642;-76
2022/12/04 12:10:43;;;;;;;;;;;;;;;;;;4918141;28;1994;-76
2022/12/04 12:13:12;;;;;;;;;;;;;;;;;;4924328;28;968;-75
2022/12/04 12:15:40;;;;;;;;;;;;;;;;;;4948795;28;1071;-75
2022/12/04 12:18:13;;;;;;;;;;;;;;;;;;4941963;28;997;-76
2022/12/04 12:20:41;;;;;;;;;;;;;;;;;;4959460;28;1401;-76
2022/12/04 12:23:20;;;;;;;;;;;;;;;;;;4932155;28;1007;-76
2022/12/04 12:25:49;;;;;;;;;;;;;;;;;;4922827;28;1296;-75
2022/12/04 12:28:18;;;;;;;;;;;;;;;;;;4932878;28;827;-76
2022/12/04 12:30:48;;;;;;;;;;;;;;;;;;4968173;28;2309;-71
2022/12/04 12:33:17;;;;;;;;;;;;;;;;;;4951569;28;1142;-71
2022/12/04 12:35:45;;;;;;;;;;;;;;;;;;4952796;28;1414;-72
2022/12/04 12:38:13;;;;;;;;;;;;;;;;;;4963339;28;926;-72
2022/12/04 12:40:42;;;;;;;;;;;;;;;;;;4949589;28;1380;-71
2022/12/04 12:43:11;;;;;;;;;;;;;;;;;;4950224;28;1409;-72
2022/12/04 12:45:42;;;;;;;;;;;;;;;;;;4960848;28;1546;-72
2022/12/04 12:48:12;;;;;;;;;;;;;;;;;;4955184;28;1487;-73
2022/12/04 12:50:41;;;;;;;;;;;;;;;;;;4943620;28;1294;-72
2022/12/04 12:53:11;;;;;;;;;;;;;;;;;;4946897;28;2021;-72
2022/12/04 12:55:39;;;;;;;;;;;;;;;;;;4966693;28;894;-72
2022/12/04 12:58:09;;;;;;;;;;;;;;;;;;4944379;28;1500;-73
2022/12/04 13:00:36;;;;;;;;;;;;;;;;;;4944182;28;1271;-73
2022/12/04 13:03:04;;;;;;;;;;;;;;;;;;4964984;28;865;-75
2022/12/04 13:05:31;;;;;;;;;;;;;;;;;;4941559;28;1117;-75
2022/12/04 13:07:59;;;;;;;;;;;;;;;;;;4967134;28;921;-73
2022/12/04 13:10:26;;;;;;;;;;;;;;;;;;4962916;28;1649;-73
2022/12/04 13:12:54;;;;;;;;;;;;;;;;;;4947289;28;2098;-72
2022/12/04 13:15:22;;;;;;;;;;;;;;;;;;4966097;28;909;-72
2022/12/04 13:17:49;;;;;;;;;;;;;;;;;;4966020;28;1584;-72
2022/12/04 13:20:17;;;;;;;;;;;;;;;;;;4959621;28;1399;-72
2022/12/04 13:22:46;;;;;;;;;;;;;;;;;;4951385;28;1163;-72
2022/12/04 13:25:19;;;;;;;;;;;;;;;;;;4963764;28;870;-72
2022/12/04 13:27:47;;;;;;;;;;;;;;;;;;4965110;28;1411;-73
2022/12/04 13:30:15;;;;;;;;;;;;;;;;;;4945366;28;1354;-72
2022/12/04 13:32:48;;;;;;;;;;;;;;;;;;4942501;28;2019;-71
2022/12/04 13:35:18;;;;;;;;;;;;;;;;;;4962638;28;739;-72
2022/12/04 13:37:48;;;;;;;;;;;;;;;;;;4948613;28;1425;-72
2022/12/04 13:40:24;;;;;;;;;;;;;;;;;;4954407;28;1294;-72
2022/12/04 13:42:50;;;;;;;;;;;;;;;;;;4945691;28;1511;-73
2022/12/04 13:45:28;;;;;;;;;;;;;;;;;;4966748;28;1607;-73
2022/12/04 13:47:57;;;;;;;;;;;;;;;;;;4962304;28;1712;-73
2022/12/04 13:50:28;;;;;;;;;;;;;;;;;;4963001;28;1274;-73
2022/12/04 13:52:55;;;;;;;;;;;;;;;;;;4960376;28;1988;-74
2022/12/04 13:55:23;;;;;;;;;;;;;;;;;;4941781;28;1980;-72
2022/12/04 13:57:53;;;;;;;;;;;;;;;;;;4951191;28;820;-71
2022/12/04 14:00:24;;;;;;;;;;;;;;;;;;4945998;28;1381;-71
2022/12/04 14:02:51;;;;;;;;;;;;;;;;;;4935682;28;1954;-72
2022/12/04 14:05:24;;;;;;;;;;;;;;;;;;4951329;28;688;-73
2022/12/04 14:07:56;;;;;;;;;;;;;;;;;;4956879;28;885;-74
2022/12/04 14:10:25;;;;;;;;;;;;;;;;;;4936875;28;1428;-73
2022/12/04 14:12:58;;;;;;;;;;;;;;;;;;4952958;28;1938;-73
2022/12/04 14:15:25;;;;;;;;;;;;;;;;;;4958435;28;1037;-73
2022/12/04 14:17:56;;;;;;;;;;;;;;;;;;4955704;28;1276;-73
2022/12/04 14:20:25;;;;;;;;;;;;;;;;;;4961116;28;1399;-74
2022/12/04 14:22:52;;;;;;;;;;;;;;;;;;4968668;28;933;-74
2022/12/04 14:25:23;;;;;;;;;;;;;;;;;;4950669;28;1078;-74
2022/12/04 14:27:51;;;;;;;;;;;;;;;;;;4973194;28;1095;-73
2022/12/04 14:30:20;;;;;;;;;;;;;;;;;;4964955;28;1284;-73
2022/12/04 14:32:47;;;;;;;;;;;;;;;;;;4964583;28;2001;-76
2022/12/04 14:35:13;;;;;;;;;;;;;;;;;;4968873;28;1605;-73
2022/12/04 14:37:43;;;;;;;;;;;;;;;;;;5022566;28;1802;-73
2022/12/04 14:40:16;;;;;;;;;;;;;;;;;;5024755;28;1494;-73
2022/12/04 14:42:42;;;;;;;;;;;;;;;;;;5036755;28;1604;-73
2022/12/04 14:45:17;;;;;;;;;;;;;;;;;;5038111;28;1064;-73
2022/12/04 14:47:45;;;;;;;;;;;;;;;;;;5030363;28;1363;-74
2022/12/04 14:50:15;;;;;;;;;;;;;;;;;;5012533;28;1408;-74
2022/12/04 14:52:43;;;;;;;;;;;;;;;;;;4994103;28;1914;-74
2022/12/04 14:55:12;;;;;;;;;;;;;;;;;;4942111;28;1054;-74
2022/12/04 14:57:44;;;;;;;;;;;;;;;;;;4941393;28;1000;-73
2022/12/04 15:00:14;;;;;;;;;;;;;;;;;;4949628;28;1312;-73
2022/12/04 15:02:41;;;;;;;;;;;;;;;;;;4965121;28;1341;-73
2022/12/04 15:05:08;;;;;;;;;;;;;;;;;;4953451;28;1014;-73
2022/12/04 15:07:35;;;;;;;;;;;;;;;;;;4949959;28;1234;-73
2022/12/04 15:12:57;;;;;;;;;;;;;;;;;;4956894;28;1938;-74
2022/12/04 15:15:24;;;;;;;;;;;;;;;;;;4963644;28;1412;-73
2022/12/04 15:17:57;;;;;;;;;;;;;;;;;;4967426;28;1463;-73
2022/12/04 15:20:24;;;;;;;;;;;;;;;;;;4982905;28;1395;-73
2022/12/04 15:22:52;;;;;;;;;;;;;;;;;;4965046;28;967;-73
2022/12/04 15:25:21;;;;;;;;;;;;;;;;;;4968272;28;1117;-72
2022/12/04 15:27:48;;;;;;;;;;;;;;;;;;4984340;28;1149;-74
2022/12/04 15:30:15;;;;;;;;;;;;;;;;;;4940181;28;1467;-73
2022/12/04 15:32:42;;;;;;;;;;;;;;;;;;4938020;28;1950;-73
2022/12/04 15:35:09;;;;;;;;;;;;;;;;;;4948269;28;1052;-73
2022/12/04 15:37:35;;;;;;;;;;;;;;;;;;4945592;28;1223;-74
2022/12/04 15:40:05;;;;;;;;;;;;;;;;;;4972561;28;1283;-74
2022/12/04 15:45:21;;;;;;;;;;;;;;;;;;4963441;28;1677;-76
2022/12/04 15:47:49;;;;;;;;;;;;;;;;;;5024947;28;1467;-77
2022/12/04 15:50:20;;;;;;;;;;;;;;;;;;5038475;28;1509;-76
2022/12/04 15:52:48;;;;;;;;;;;;;;;;;;5045662;28;1993;-76
2022/12/04 15:55:15;;;;;;;;;;;;;;;;;;5052939;28;1094;-76
2022/12/04 15:57:42;;;;;;;;;;;;;;;;;;5019670;28;1411;-77
2022/12/04 16:00:22;;;;;;;;;;;;;;;;;;5041121;28;1139;-76
2022/12/04 16:02:48;;;;;;;;;;;;;;;;;;5052421;28;1419;-78
2022/12/04 16:05:25;;;;;;;;;;;;;;;;;;5053131;28;1364;-77
2022/12/04 16:07:52;;;;;;;;;;;;;;;;;;5044777;28;1404;-78
2022/12/04 16:10:20;;;;;;;;;;;;;;;;;;5046387;28;1192;-78
2022/12/04 16:12:51;;;;;;;;;;;;;;;;;;5052087;28;1906;-78
2022/12/04 16:15:17;;;;;;;;;;;;;;;;;;5046840;28;1462;-77
2022/12/04 16:17:44;;;;;;;;;;;;;;;;;;5044696;28;1385;-79
2022/12/04 16:20:11;;;;;;;;;;;;;;;;;;5045611;28;1256;-79
2022/12/04 16:22:38;;;;;;;;;;;;;;;;;;5026568;28;1467;-78
2022/12/04 16:25:05;;;;;;;;;;;;;;;;;;4976022;28;1158;-75
2022/12/04 16:27:31;;;;;;;;;;;;;;;;;;4966049;28;1041;-75
2022/12/04 16:29:58;;;;;;;;;;;;;;;;;;4977672;28;1134;-75
2022/12/04 16:32:26;;;;;;;;;;;;;;;;;;4964517;28;2001;-76
2022/12/04 16:34:53;;;;;;;;;;;;;;;;;;4966771;28;1382;-75
2022/12/04 16:37:21;;;;;;;;;;;;;;;;;;4962040;28;969;-75
2022/12/04 16:39:48;;;;;;;;;;;;;;;;;;4952529;28;1067;-76
2022/12/04 16:42:15;;;;;;;;;;;;;;;;;;4967178;28;992;-76
2022/12/04 16:44:42;;;;;;;;;;;;;;;;;;4984282;28;1359;-76
2022/12/04 16:47:09;;;;;;;;;;;;;;;;;;4986121;28;929;-76
2022/12/04 16:49:35;;;;;;;;;;;;;;;;;;4987810;28;889;-76
2022/12/04 16:52:03;;;;;;;;;;;;;;;;;;4984097;28;1938;-76
2022/12/04 16:54:33;;;;;;;;;;;;;;;;;;4982017;28;1381;-75
2022/12/04 16:56:59;;;;;;;;;;;;;;;;;;4971251;28;1660;-76
2022/12/04 16:59:26;;;;;;;;;;;;;;;;;;4963004;28;1731;-76
2022/12/04 17:01:52;;;;;;;;;;;;;;;;;;4948490;28;1080;-76
2022/12/04 17:04:19;;;;;;;;;;;;;;;;;;4962579;28;1286;-75
2022/12/04 17:06:45;;;;;;;;;;;;;;;;;;4945846;28;929;-75
2022/12/04 17:09:13;;;;;;;;;;;;;;;;;;4951055;28;893;-76
2022/12/04 17:11:40;;;;;;;;;;;;;;;;;;4965876;28;1455;-75
2022/12/04 17:14:07;;;;;;;;;;;;;;;;;;4942921;28;1930;-76
2022/12/04 17:16:34;;;;;;;;;;;;;;;;;;4953903;28;1145;-76
2022/12/04 17:19:00;;;;;;;;;;;;;;;;;;4984177;28;896;-76
2022/12/04 17:21:27;;;;;;;;;;;;;;;;;;4984551;28;1250;-76
2022/12/04 17:23:53;;;;;;;;;;;;;;;;;;4983018;28;1400;-76
2022/12/04 17:26:21;;;;;;;;;;;;;;;;;;4963003;28;1359;-76